Wetterdaten: Woche 28.05.12 - 03.06.12 (KW22)
Datum Zeit Temp. A. Feuchte A. Luftdruck Regen Wind Richtung Taupunkt Windchill Windben
28.05.2012 00:00 13,1 C 57 % 1014,7 hPa 0,0 l/m 0,2 km/h N 4,8 C 13,1 C 3,6 km/h
28.05.2012 01:00 13,4 C 54 % 1014,5 hPa 0,0 l/m 0,5 km/h N 4,2 C 13,4 C 6,0 km/h
28.05.2012 02:00 14,1 C 52 % 1013,9 hPa 0,0 l/m 0,3 km/h N 4,4 C 14,1 C 4,0 km/h
28.05.2012 03:00 14,3 C 55 % 1013,4 hPa 0,0 l/m 0,6 km/h N 5,3 C 14,3 C 4,8 km/h
28.05.2012 04:00 13,8 C 56 % 1013,1 hPa 0,0 l/m 0,1 km/h N 5,1 C 13,8 C 2,8 km/h
28.05.2012 05:00 13,6 C 56 % 1013,1 hPa 0,0 l/m 0,2 km/h N 5,0 C 13,6 C 1,6 km/h
28.05.2012 06:00 13,9 C 61 % 1013,2 hPa 0,0 l/m 0,0 km/h N 6,4 C 13,9 C 0,4 km/h
28.05.2012 07:00 14,8 C 63 % 1013,1 hPa 0,0 l/m 0,2 km/h N 7,8 C 14,8 C 2,8 km/h
28.05.2012 08:00 18,9 C 51 % 1013,1 hPa 0,0 l/m 1,0 km/h N 8,5 C 18,9 C 6,4 km/h
28.05.2012 09:00 20,3 C 45 % 1012,9 hPa 0,0 l/m 5,4 km/h N 7,9 C 20,2 C 14,1 km/h
28.05.2012 10:00 20,9 C 43 % 1012,7 hPa 0,0 l/m 10,1 km/h N 7,8 C 19,6 C 24,1 km/h
28.05.2012 11:00 20,9 C 42 % 1012,5 hPa 0,0 l/m 8,8 km/h N 7,6 C 20,1 C 22,1 km/h
28.05.2012 12:00 21,7 C 44 % 1011,9 hPa 0,0 l/m 7,9 km/h N 8,8 C 21,2 C 21,7 km/h
28.05.2012 13:00 18,1 C 54 % 1012,0 hPa 0,0 l/m 10,1 km/h N 8,7 C 16,6 C 26,5 km/h
28.05.2012 14:00 19,9 C 49 % 1011,4 hPa 0,0 l/m 4,7 km/h N 8,9 C 19,6 C 20,1 km/h
28.05.2012 15:00 19,4 C 49 % 1011,4 hPa 0,3 l/m 10,9 km/h N 8,4 C 17,8 C 27,8 km/h
28.05.2012 16:00 20,0 C 51 % 1011,4 hPa 0,0 l/m 9,4 km/h N 9,4 C 18,9 C 31,8 km/h
28.05.2012 17:00 19,0 C 52 % 1011,8 hPa 0,0 l/m 10,3 km/h N 8,9 C 17,5 C 24,1 km/h
28.05.2012 18:00 16,5 C 62 % 1012,0 hPa 0,0 l/m 6,3 km/h N 9,1 C 16,0 C 18,1 km/h
28.05.2012 19:00 15,6 C 69 % 1011,8 hPa 0,0 l/m 4,7 km/h N 9,9 C 15,6 C 14,5 km/h
28.05.2012 20:00 14,9 C 74 % 1011,5 hPa 0,0 l/m 1,2 km/h N 10,2 C 14,9 C 6,0 km/h
28.05.2012 21:00 14,8 C 69 % 1011,4 hPa 0,0 l/m 1,5 km/h N 9,1 C 14,8 C 8,4 km/h
28.05.2012 22:00 14,4 C 69 % 1011,7 hPa 0,0 l/m 1,3 km/h N 8,9 C 14,4 C 8,4 km/h
28.05.2012 23:00 14,6 C 69 % 1011,4 hPa 0,0 l/m 2,8 km/h N 8,9 C 14,6 C 11,3 km/h
29.05.2012 00:00 15,0 C 67 % 1011,2 hPa 0,3 l/m 6,8 km/h N 8,8 C 14,7 C 19,3 km/h
29.05.2012 01:00 14,9 C 68 % 1011,1 hPa 0,0 l/m 3,8 km/h N 8,9 C 14,8 C 14,1 km/h
29.05.2012 02:00 13,9 C 72 % 1011,1 hPa 0,0 l/m 2,2 km/h N 8,9 C 13,9 C 9,6 km/h
29.05.2012 03:00 13,6 C 74 % 1011,1 hPa 0,0 l/m 1,1 km/h N 9,0 C 13,6 C 6,4 km/h
29.05.2012 04:00 13,4 C 75 % 1011,0 hPa 0,0 l/m 1,6 km/h N 9,0 C 13,4 C 8,9 km/h
29.05.2012 05:00 13,0 C 76 % 1011,3 hPa 0,0 l/m 0,3 km/h N 8,8 C 13,0 C 2,4 km/h
29.05.2012 06:00 13,3 C 78 % 1011,4 hPa 0,0 l/m 0,5 km/h N 9,5 C 13,3 C 4,4 km/h
29.05.2012 07:00 16,0 C 70 % 1011,4 hPa 0,0 l/m 4,3 km/h N 10,6 C 16,0 C 14,5 km/h
29.05.2012 08:00 17,7 C 65 % 1011,4 hPa 0,0 l/m 8,4 km/h N 11,1 C 16,8 C 19,3 km/h
29.05.2012 09:00 19,1 C 63 % 1011,3 hPa 0,0 l/m 7,0 km/h N 11,8 C 18,8 C 17,7 km/h
29.05.2012 10:00 20,3 C 57 % 1011,2 hPa 0,0 l/m 5,9 km/h N 11,5 C 20,2 C 15,7 km/h
29.05.2012 11:00 21,3 C 51 % 1011,0 hPa 0,0 l/m 5,8 km/h N 10,8 C 21,2 C 14,9 km/h
29.05.2012 12:00 21,7 C 48 % 1010,9 hPa 0,0 l/m 6,1 km/h N 10,2 C 21,5 C 16,9 km/h
29.05.2012 13:00 22,8 C 48 % 1010,6 hPa 0,0 l/m 7,3 km/h N 11,1 C 22,5 C 19,3 km/h
29.05.2012 14:00 23,5 C 46 % 1010,2 hPa 0,0 l/m 6,0 km/h N 11,2 C 23,5 C 16,9 km/h
29.05.2012 15:00 23,3 C 46 % 1009,7 hPa 0,0 l/m 6,1 km/h N 10,9 C 23,2 C 17,3 km/h
29.05.2012 16:00 23,5 C 45 % 1009,3 hPa 0,0 l/m 6,0 km/h N 10,7 C 23,4 C 17,3 km/h
29.05.2012 17:00 23,6 C 43 % 1009,2 hPa 0,0 l/m 6,3 km/h N 10,2 C 23,5 C 17,3 km/h
29.05.2012 18:00 24,2 C 46 % 1009,0 hPa 0,0 l/m 5,0 km/h N 11,7 C 24,1 C 15,7 km/h
29.05.2012 19:00 23,5 C 50 % 1009,4 hPa 0,0 l/m 5,5 km/h N 12,4 C 23,4 C 16,5 km/h
29.05.2012 20:00 20,9 C 55 % 1010,3 hPa 0,0 l/m 9,9 km/h N 11,4 C 19,7 C 28,6 km/h
29.05.2012 21:00 19,5 C 58 % 1010,9 hPa 0,0 l/m 8,8 km/h N 11,1 C 18,6 C 26,1 km/h
29.05.2012 22:00 18,9 C 62 % 1011,3 hPa 0,0 l/m 9,8 km/h N 11,4 C 17,5 C 31,0 km/h
29.05.2012 23:00 18,3 C 62 % 1011,5 hPa 0,0 l/m 7,0 km/h N 10,9 C 17,8 C 23,7 km/h
30.05.2012 00:00 18,1 C 60 % 1011,6 hPa 0,0 l/m 8,9 km/h N 10,3 C 17,0 C 24,5 km/h
30.05.2012 01:00 18,4 C 59 % 1011,4 hPa 0,0 l/m 9,2 km/h N 10,2 C 17,2 C 22,5 km/h
30.05.2012 02:00 18,6 C 57 % 1011,6 hPa 0,0 l/m 10,7 km/h N 10,0 C 16,8 C 26,9 km/h
30.05.2012 03:00 18,3 C 58 % 1012,1 hPa 0,0 l/m 7,2 km/h N 9,9 C 17,9 C 18,5 km/h
30.05.2012 04:00 18,1 C 60 % 1012,5 hPa 0,0 l/m 8,6 km/h N 10,3 C 17,2 C 21,3 km/h
30.05.2012 05:00 17,3 C 64 % 1013,1 hPa 0,0 l/m 5,1 km/h N 10,5 C 17,2 C 15,7 km/h
30.05.2012 06:00 17,4 C 66 % 1013,6 hPa 0,0 l/m 5,1 km/h N 10,8 C 17,4 C 14,5 km/h
30.05.2012 07:00 18,1 C 65 % 1014,2 hPa 0,0 l/m 4,8 km/h N 11,4 C 18,1 C 14,1 km/h
30.05.2012 08:00 19,5 C 60 % 1014,5 hPa 0,0 l/m 8,1 km/h N 11,5 C 18,8 C 20,9 km/h
30.05.2012 09:00 20,7 C 57 % 1014,6 hPa 0,0 l/m 8,6 km/h N 11,8 C 19,9 C 22,5 km/h
30.05.2012 10:00 21,6 C 55 % 1014,7 hPa 0,0 l/m 9,9 km/h N 12,1 C 20,5 C 23,3 km/h
30.05.2012 11:00 22,7 C 53 % 1014,6 hPa 0,0 l/m 10,7 km/h N 12,5 C 21,5 C 26,1 km/h
30.05.2012 12:00 23,7 C 50 % 1014,3 hPa 0,0 l/m 10,0 km/h N 12,5 C 22,7 C 25,8 km/h
30.05.2012 13:00 23,3 C 49 % 1014,4 hPa 0,0 l/m 11,1 km/h N 12,0 C 22,0 C 26,9 km/h
30.05.2012 14:00 17,7 C 74 % 1015,4 hPa 0,5 l/m 12,5 km/h N 13,0 C 15,3 C 28,6 km/h
30.05.2012 15:00 17,3 C 77 % 1015,2 hPa 0,5 l/m 7,2 km/h N 13,1 C 16,6 C 18,1 km/h
30.05.2012 16:00 20,7 C 66 % 1014,6 hPa 0,5 l/m 7,4 km/h N 14,0 C 20,3 C 19,7 km/h
30.05.2012 17:00 21,4 C 62 % 1014,7 hPa 0,3 l/m 7,9 km/h N 13,7 C 20,9 C 22,5 km/h
30.05.2012 18:00 16,7 C 77 % 1015,3 hPa 0,5 l/m 2,4 km/h N 12,7 C 16,5 C 12,5 km/h
30.05.2012 19:00 16,0 C 81 % 1015,0 hPa 0,5 l/m 0,9 km/h N 12,7 C 16,0 C 7,7 km/h
30.05.2012 20:00 15,6 C 81 % 1015,0 hPa 0,3 l/m 0,3 km/h N 12,3 C 15,6 C 5,2 km/h
30.05.2012 21:00 15,5 C 77 % 1015,6 hPa 0,5 l/m 4,3 km/h N 11,5 C 15,1 C 13,3 km/h
30.05.2012 22:00 17,2 C 70 % 1015,5 hPa 0,3 l/m 12,6 km/h N 11,6 C 14,7 C 30,6 km/h
30.05.2012 23:00 17,4 C 67 % 1015,6 hPa 0,3 l/m 8,9 km/h N 11,2 C 16,2 C 25,3 km/h
31.05.2012 00:00 17,4 C 65 % 1016,0 hPa 0,3 l/m 9,7 km/h N 10,7 C 16,0 C 22,9 km/h
31.05.2012 01:00 18,0 C 62 % 1016,3 hPa 0,3 l/m 9,6 km/h N 10,7 C 16,6 C 23,7 km/h
31.05.2012 02:00 17,7 C 65 % 1016,4 hPa 0,0 l/m 9,4 km/h N 11,0 C 16,3 C 23,7 km/h
31.05.2012 03:00 17,0 C 69 % 1016,6 hPa 0,3 l/m 3,5 km/h N 11,2 C 17,0 C 10,9 km/h
31.05.2012 04:00 15,4 C 75 % 1016,7 hPa 0,0 l/m 0,0 km/h N 11,0 C 15,4 C 1,6 km/h
31.05.2012 05:00 15,8 C 76 % 1017,2 hPa 0,3 l/m 1,4 km/h N 11,6 C 15,8 C 6,8 km/h
31.05.2012 06:00 16,6 C 74 % 1017,5 hPa 0,0 l/m 4,0 km/h N 11,9 C 16,7 C 13,7 km/h
31.05.2012 07:00 17,1 C 74 % 1018,0 hPa 0,0 l/m 3,9 km/h N 12,4 C 17,1 C 12,9 km/h
31.05.2012 08:00 17,8 C 74 % 1018,2 hPa 0,0 l/m 3,2 km/h N 13,0 C 17,8 C 11,7 km/h
31.05.2012 09:00 19,0 C 72 % 1018,3 hPa 0,3 l/m 7,9 km/h N 13,8 C 18,4 C 20,1 km/h
31.05.2012 10:00 18,8 C 72 % 1018,4 hPa 0,0 l/m 6,4 km/h N 13,6 C 18,6 C 17,7 km/h
31.05.2012 11:00 19,8 C 67 % 1018,1 hPa 0,0 l/m 7,0 km/h N 13,5 C 19,5 C 24,1 km/h
31.05.2012 12:00 21,1 C 61 % 1017,6 hPa 0,0 l/m 10,4 km/h N 13,2 C 19,8 C 27,8 km/h
31.05.2012 13:00 21,3 C 59 % 1016,9 hPa 0,0 l/m 9,8 km/h N 12,8 C 20,1 C 24,5 km/h
31.05.2012 14:00 22,5 C 52 % 1016,2 hPa 0,0 l/m 9,0 km/h N 12,2 C 21,6 C 27,4 km/h
31.05.2012 15:00 22,3 C 52 % 1015,6 hPa 0,0 l/m 11,3 km/h N 11,8 C 20,8 C 25,7 km/h
31.05.2012 16:00 21,8 C 54 % 1015,0 hPa 0,0 l/m 6,9 km/h N 12,1 C 21,6 C 23,7 km/h
31.05.2012 17:00 22,6 C 49 % 1014,5 hPa 0,0 l/m 8,1 km/h N 11,3 C 22,1 C 22,1 km/h
31.05.2012 18:00 22,0 C 54 % 1014,2 hPa 0,0 l/m 3,3 km/h N 12,2 C 22,0 C 12,5 km/h
31.05.2012 19:00 21,4 C 58 % 1014,1 hPa 0,0 l/m 1,6 km/h N 12,7 C 21,4 C 8,4 km/h
31.05.2012 20:00 20,4 C 62 % 1014,1 hPa 0,0 l/m 0,0 km/h N 12,9 C 20,4 C 1,6 km/h
31.05.2012 21:00 18,5 C 68 % 1014,1 hPa 0,0 l/m 0,0 km/h N 12,4 C 18,5 C 0,4 km/h
31.05.2012 22:00 16,4 C 75 % 1013,9 hPa 0,0 l/m 0,0 km/h N 11,9 C 16,4 C 0,4 km/h
31.05.2012 23:00 15,3 C 79 % 1013,2 hPa 0,0 l/m 0,1 km/h N 11,7 C 15,3 C 1,2 km/h
01.06.2012 00:00 15,3 C 79 % 1012,2 hPa 0,0 l/m 0,1 km/h N 11,6 C 15,3 C 2,0 km/h
01.06.2012 01:00 15,8 C 77 % 1011,1 hPa 0,0 l/m 0,2 km/h N 11,6 C 15,8 C 2,8 km/h
01.06.2012 02:00 16,1 C 76 % 1009,9 hPa 0,0 l/m 0,0 km/h N 11,8 C 16,1 C 1,2 km/h
01.06.2012 03:00 16,5 C 74 % 1010,2 hPa 0,0 l/m 3,3 km/h N 11,9 C 16,5 C 13,3 km/h
01.06.2012 04:00 15,8 C 80 % 1010,1 hPa 0,5 l/m 0,6 km/h N 12,4 C 15,8 C 6,4 km/h
01.06.2012 05:00 15,1 C 81 % 1009,6 hPa 0,3 l/m 0,2 km/h N 11,8 C 15,1 C 4,8 km/h
01.06.2012 06:00 15,0 C 81 % 1010,1 hPa 1,6 l/m 3,3 km/h N 11,6 C 15,0 C 14,1 km/h
01.06.2012 07:00 15,5 C 81 % 1010,9 hPa 0,3 l/m 5,4 km/h N 12,3 C 15,3 C 20,9 km/h
01.06.2012 08:00 16,6 C 78 % 1011,3 hPa 0,0 l/m 9,3 km/h N 12,6 C 15,1 C 25,3 km/h
01.06.2012 09:00 17,5 C 73 % 1011,5 hPa 0,0 l/m 8,4 km/h N 12,5 C 16,6 C 27,3 km/h
01.06.2012 10:00 17,2 C 71 % 1011,9 hPa 0,3 l/m 11,9 km/h N 11,8 C 14,8 C 29,8 km/h
01.06.2012 11:00 17,5 C 71 % 1011,9 hPa 0,0 l/m 11,3 km/h N 12,0 C 15,4 C 32,2 km/h
01.06.2012 12:00 19,0 C 64 % 1011,6 hPa 0,0 l/m 10,6 km/h N 11,9 C 17,3 C 30,6 km/h
01.06.2012 13:00 20,3 C 59 % 1011,5 hPa 0,0 l/m 11,6 km/h N 12,1 C 18,6 C 32,6 km/h
01.06.2012 14:00 19,4 C 59 % 1011,8 hPa 0,0 l/m 11,3 km/h N 11,2 C 17,7 C 28,5 km/h
01.06.2012 15:00 17,8 C 69 % 1012,3 hPa 0,0 l/m 9,4 km/h N 11,9 C 16,6 C 22,9 km/h
01.06.2012 16:00 17,0 C 74 % 1012,4 hPa 0,3 l/m 4,2 km/h N 12,2 C 17,0 C 10,5 km/h
01.06.2012 17:00 17,8 C 69 % 1012,5 hPa 0,0 l/m 4,3 km/h N 11,9 C 17,8 C 12,1 km/h
01.06.2012 18:00 19,0 C 59 % 1012,8 hPa 0,0 l/m 7,9 km/h N 10,6 C 18,3 C 21,3 km/h
01.06.2012 19:00 19,1 C 56 % 1013,1 hPa 0,0 l/m 8,3 km/h N 10,1 C 18,3 C 26,1 km/h
01.06.2012 20:00 17,9 C 60 % 1013,5 hPa 0,0 l/m 8,2 km/h N 9,9 C 17,1 C 24,2 km/h
01.06.2012 21:00 17,4 C 60 % 1014,1 hPa 0,0 l/m 8,5 km/h N 9,5 C 16,4 C 22,9 km/h
01.06.2012 22:00 16,8 C 64 % 1014,7 hPa 0,0 l/m 3,9 km/h N 9,8 C 16,8 C 11,7 km/h
01.06.2012 23:00 15,8 C 67 % 1015,2 hPa 0,0 l/m 5,6 km/h N 9,7 C 15,6 C 14,5 km/h
02.06.2012 00:00 14,9 C 69 % 1015,3 hPa 0,0 l/m 1,4 km/h N 9,2 C 14,9 C 6,1 km/h
02.06.2012 01:00 13,4 C 75 % 1015,2 hPa 0,0 l/m 0,0 km/h N 8,9 C 13,4 C 0,4 km/h
02.06.2012 02:00 12,7 C 78 % 1014,9 hPa 0,0 l/m 0,0 km/h N 9,0 C 12,7 C 0,0 km/h
02.06.2012 03:00 12,3 C 80 % 1014,9 hPa 0,0 l/m 0,0 km/h N 9,0 C 12,3 C 0,0 km/h
02.06.2012 04:00 12,4 C 82 % 1014,9 hPa 0,0 l/m 0,0 km/h N 9,4 C 12,4 C 0,0 km/h
02.06.2012 05:00 12,3 C 82 % 1014,9 hPa 0,0 l/m 0,0 km/h N 9,3 C 12,3 C 0,4 km/h
02.06.2012 06:00 12,8 C 83 % 1015,5 hPa 1,8 l/m 0,1 km/h N 10,0 C 12,8 C 1,2 km/h
02.06.2012 07:00 13,0 C 81 % 1016,1 hPa 0,3 l/m 0,0 km/h N 9,9 C 13,0 C 0,4 km/h
02.06.2012 08:00 13,1 C 80 % 1016,2 hPa 0,0 l/m 0,1 km/h N 9,8 C 13,1 C 2,0 km/h
02.06.2012 09:00 13,0 C 80 % 1016,3 hPa 0,5 l/m 0,1 km/h N 9,7 C 13,0 C 1,2 km/h
02.06.2012 10:00 13,2 C 81 % 1016,7 hPa 0,8 l/m 0,6 km/h N 9,9 C 13,2 C 3,6 km/h
02.06.2012 11:00 14,3 C 81 % 1016,3 hPa 0,0 l/m 2,7 km/h N 11,0 C 14,3 C 9,6 km/h
02.06.2012 12:00 15,1 C 82 % 1015,7 hPa 0,0 l/m 4,4 km/h N 12,1 C 15,1 C 12,9 km/h
02.06.2012 13:00 16,3 C 79 % 1015,4 hPa 0,0 l/m 3,3 km/h N 12,7 C 16,3 C 10,5 km/h
02.06.2012 14:00 17,7 C 72 % 1014,7 hPa 0,0 l/m 1,6 km/h N 12,6 C 17,7 C 6,8 km/h
02.06.2012 15:00 20,1 C 57 % 1013,9 hPa 0,0 l/m 1,8 km/h N 11,3 C 20,1 C 12,5 km/h
02.06.2012 16:00 21,3 C 52 % 1013,5 hPa 0,0 l/m 2,0 km/h N 11,1 C 21,3 C 13,3 km/h
02.06.2012 17:00 21,5 C 51 % 1013,1 hPa 0,0 l/m 2,1 km/h N 11,0 C 21,5 C 9,7 km/h
02.06.2012 18:00 21,4 C 51 % 1012,8 hPa 0,0 l/m 0,8 km/h N 10,8 C 21,4 C 9,7 km/h
02.06.2012 19:00 21,6 C 51 % 1012,7 hPa 0,0 l/m 0,4 km/h N 11,0 C 21,6 C 5,2 km/h
02.06.2012 20:00 20,4 C 56 % 1012,8 hPa 0,0 l/m 0,1 km/h N 11,1 C 20,4 C 2,0 km/h
02.06.2012 21:00 16,8 C 67 % 1013,2 hPa 0,0 l/m 0,0 km/h N 10,7 C 16,8 C 0,0 km/h
02.06.2012 22:00 14,6 C 75 % 1013,3 hPa 0,0 l/m 0,0 km/h N 10,1 C 14,6 C 0,8 km/h
02.06.2012 23:00 13,2 C 79 % 1013,1 hPa 0,0 l/m 0,0 km/h N 9,6 C 13,2 C 0,8 km/h
03.06.2012 00:00 12,5 C 81 % 1012,9 hPa 0,0 l/m 1,0 km/h N 9,3 C 12,5 C 3,2 km/h
03.06.2012 01:00 12,7 C 81 % 1012,3 hPa 0,0 l/m 1,4 km/h N 9,5 C 12,7 C 6,0 km/h
03.06.2012 02:00 12,3 C 81 % 1012,0 hPa 0,0 l/m 0,0 km/h N 9,0 C 12,3 C 0,0 km/h
03.06.2012 03:00 12,1 C 82 % 1011,6 hPa 0,0 l/m 0,0 km/h N 9,1 C 12,1 C 0,0 km/h
03.06.2012 04:00 12,3 C 82 % 1011,0 hPa 0,0 l/m 0,3 km/h N 9,3 C 12,3 C 4,4 km/h
03.06.2012 05:00 12,5 C 82 % 1010,9 hPa 0,0 l/m 0,0 km/h N 9,5 C 12,5 C 0,8 km/h
03.06.2012 06:00 12,7 C 82 % 1010,8 hPa 0,0 l/m 0,0 km/h N 9,7 C 12,7 C 0,8 km/h
03.06.2012 07:00 13,9 C 82 % 1010,8 hPa 0,0 l/m 0,2 km/h N 10,8 C 13,9 C 2,0 km/h
03.06.2012 08:00 16,2 C 77 % 1010,5 hPa 0,0 l/m 0,3 km/h N 12,2 C 16,2 C 2,8 km/h
03.06.2012 09:00 17,4 C 75 % 1010,4 hPa 0,0 l/m 0,8 km/h N 12,8 C 17,4 C 6,0 km/h
03.06.2012 10:00 20,3 C 68 % 1010,0 hPa 0,0 l/m 1,0 km/h N 14,1 C 20,3 C 5,6 km/h
03.06.2012 11:00 23,5 C 64 % 1009,3 hPa 0,0 l/m 1,4 km/h N 16,1 C 23,5 C 6,8 km/h
03.06.2012 12:00 25,1 C 61 % 1008,8 hPa 0,0 l/m 1,6 km/h N 17,0 C 25,1 C 8,0 km/h
03.06.2012 13:00 26,4 C 56 % 1007,9 hPa 0,0 l/m 2,3 km/h N 16,9 C 26,4 C 12,1 km/h
03.06.2012 14:00 27,6 C 54 % 1007,0 hPa 0,0 l/m 2,0 km/h N 17,6 C 27,6 C 12,1 km/h
03.06.2012 15:00 27,9 C 51 % 1006,3 hPa 0,0 l/m 3,8 km/h N 16,8 C 27,9 C 13,7 km/h
03.06.2012 16:00 26,8 C 59 % 1006,0 hPa 0,0 l/m 2,4 km/h N 18,2 C 26,8 C 9,7 km/h
03.06.2012 17:00 27,1 C 60 % 1005,2 hPa 0,0 l/m 0,6 km/h N 18,6 C 27,1 C 5,2 km/h
03.06.2012 18:00 27,5 C 55 % 1004,3 hPa 0,0 l/m 1,8 km/h N 17,7 C 27,5 C 7,2 km/h
03.06.2012 19:00 26,7 C 57 % 1003,8 hPa 0,0 l/m 2,3 km/h N 17,4 C 26,7 C 8,0 km/h
03.06.2012 20:00 24,8 C 64 % 1003,2 hPa 0,0 l/m 1,2 km/h N 17,3 C 24,8 C 5,2 km/h
03.06.2012 21:00 21,9 C 73 % 1003,0 hPa 0,0 l/m 0,0 km/h N 16,7 C 21,9 C 0,0 km/h
03.06.2012 22:00 19,5 C 80 % 1003,6 hPa 0,0 l/m 0,4 km/h N 15,9 C 19,5 C 5,2 km/h
03.06.2012 23:00 22,3 C 67 % 1005,2 hPa 0,0 l/m 15,5 km/h N 15,9 C 20,0 C 35,0 km/h
Min-Datum _ 03.06.12 28.05.12 03.06.12 - 28.05.12 - 28.05.12 03.06.12 28.05.12
_ Min-Zeit 02:45 11:45 21:00 - 00:45 - 02:15 02:45 01:00
Minimum _ 12,1 C 40 % 1003,0 hPa - 0,0 km/h - 3,8 C 12,1 C 0,0 km/h
Max-Datum _ 03.06.12 02.06.12 31.05.12 02.06.12 03.06.12 - 03.06.12 03.06.12 03.06.12
_ Max-Zeit 15:00 06:30 10:00 06:15 23:30 - 17:00 15:00 23:30
Maximum _ 28,8 C 85 % 1018,5 hPa 1,8 l/m 20,6 km/h
N
- 19,1 C 28,7 C 48,3 km/h
N
Durchschnitt _ 18,1 C 65 % 1012,6 hPa #12,5 l/m 4,5 km/h N 11,1 C 17,7 C 13,5 km/h